Create Tblcommutelog Verified Points Advance Search
| # | Trip ID | Id Commuter | Trip Date | Trip Num | Current Lat | Current Lng | Delta Distance | Current Time | Activity | Activity Confidence | Current Speed | |
|---|---|---|---|---|---|---|---|---|---|---|---|---|
| 69281 | 250514_785057_6438355_0739 | 785057 | (not set) | (not set) | 38.909934047859 | -77.094464812358 | 4.0533 | 2025-05-14 11:56:02.303 | unknown | 100 | 2.9057551834202 | |
| 69282 | 250514_784923_16478950_0637 | 784923 | (not set) | (not set) | 38.893103306049 | -77.021907084636 | 21.5902 | 2025-05-14 11:56:03.221 | unknown | 100 | 3.4734950423346 | |
| 69283 | 250514_758537_16503613_0746 | 758537 | (not set) | (not set) | 38.923321511409 | -77.049475282853 | 0.5204 | 2025-05-14 11:56:03.326 | on_foot | 100 | 0.59903260704355 | |
| 69284 | 250514_772317_6438355_0741 | 772317 | (not set) | (not set) | 38.936972156012 | -77.047690448974 | 1.0071 | 2025-05-14 11:56:03.359 | unknown | 100 | 2.7403506575947 | |
| 69285 | 250514_785057_6438355_0739 | 785057 | (not set) | (not set) | 38.909833543392 | -77.094375623081 | 4.0533 | 2025-05-14 11:56:04.136 | unknown | 100 | 2.9057551834202 | |
| 69286 | 250514_780813_16421763_0729 | 780813 | (not set) | (not set) | 38.783311294165 | -77.268258088943 | 1.9794 | 2025-05-14 11:56:04.223 | in_vehicle | 100 | 6.5133620034511 | |
| 69287 | 250514_780745_16421763_0751 | 780745 | (not set) | (not set) | 39.087617612376 | -77.557326077507 | 1.3986 | 2025-05-14 11:56:06.263 | in_vehicle | 100 | 7.1794504993429 | |
| 69288 | 250514_762844_16460442_0637 | 762844 | (not set) | (not set) | 38.898196759438 | -77.004976500302 | 40.3932 | 2025-05-14 11:56:07.257 | on_foot | 100 | 1.0728942215705 | |
| 69289 | 250514_781588_16504560_0752 | 781588 | (not set) | (not set) | 39.074700356849 | -77.143999027836 | 0 | 2025-05-14 11:56:10.617 | in_vehicle | 100 | -0.44703925898772 | |
| 69290 | 250514_780789_16421763_0743 | 780789 | (not set) | (not set) | 38.804252540196 | -77.581243961777 | 8.5503 | 2025-05-14 11:56:11.326 | unknown | 100 | 11.426323459726 | |
| 69291 | 250514_784389_6428266_0704 | 784389 | (not set) | (not set) | 38.889267825214 | -77.109476596683 | 33.2122 | 2025-05-14 11:56:11.866 | in_vehicle | 100 | 6.4060725812941 | |
| 69292 | 250514_781588_16504560_0752 | 781588 | (not set) | (not set) | 39.075182718261 | -77.143403068257 | 0.2443 | 2025-05-14 11:56:12.2 | in_vehicle | 100 | 6.6340626033778 | |
| 69293 | 250514_780330_6461772_0739 | 780330 | (not set) | (not set) | 38.943359228453 | -77.063088393091 | 3.7124 | 2025-05-14 11:56:12.249 | still | 33 | -0.44703925898772 | |
| 69294 | 250514_780330_6461772_0739 | 780330 | (not set) | (not set) | 38.942722342789 | -77.068033754544 | 2.0991 | 2025-05-14 11:56:12.26 | still | 33 | -0.44703925898772 | |
| 69295 | 250514_783548_6438355_0740 | 783548 | (not set) | (not set) | 38.928377852377 | -77.04399213412 | 3.804 | 2025-05-14 11:56:13.24 | in_vehicle | 100 | 4.6670898638318 | |
| 69296 | 250514_766890_6443618_0726 | 766890 | (not set) | (not set) | 39.000840232758 | -77.104566042711 | 4.1642 | 2025-05-14 11:56:13.798 | on_foot | 100 | 0.38892415531932 | |
| 69297 | 250514_748111_16508640_0711 | 748111 | (not set) | (not set) | 38.87920041054 | -77.135371305763 | 15.7802 | 2025-05-14 11:56:14.233 | in_vehicle | 100 | 10.492011408442 | |
| 69298 | 250514_753596_16513587_0742 | 753596 | (not set) | (not set) | 38.901319029032 | -77.070228699261 | 2.9626 | 2025-05-14 11:56:15.383 | on_bicycle | 100 | 3.2455050202509 | |
| 69299 | 250514_784389_6428266_0704 | 784389 | (not set) | (not set) | 38.889887394133 | -77.107103798251 | 33.3471 | 2025-05-14 11:56:17.417 | in_vehicle | 100 | 9.3699428683827 | |
| 69300 | 250514_785057_6438355_0739 | 785057 | (not set) | (not set) | 38.90928329908 | -77.093665000753 | 4.1155 | 2025-05-14 11:56:17.634 | unknown | 100 | 3.0711597092457 |